createdAt,value
2018-07-12T00:00:46.769Z,5.50
2018-07-12T00:03:14.087Z,4.20
2018-07-12T00:05:41.358Z,4.80
2018-07-12T00:08:08.652Z,4.60
2018-07-12T00:10:35.945Z,4.80
2018-07-12T00:13:03.464Z,4.93
2018-07-12T00:15:30.777Z,5.00
2018-07-12T00:17:58.055Z,4.60
2018-07-12T00:20:25.333Z,4.67
2018-07-12T00:22:52.632Z,4.70
2018-07-12T00:25:19.895Z,4.50
2018-07-12T00:27:47.183Z,4.80
2018-07-12T00:30:14.670Z,5.13
2018-07-12T00:32:41.927Z,4.60
2018-07-12T00:35:09.208Z,4.60
2018-07-12T00:37:36.493Z,4.90
2018-07-12T00:40:03.873Z,4.70
2018-07-12T00:42:31.158Z,4.90
2018-07-12T00:44:58.730Z,4.60
2018-07-12T00:47:26.380Z,5.50
2018-07-12T00:49:53.654Z,4.70
2018-07-12T00:52:20.946Z,5.20
2018-07-12T00:54:48.229Z,4.90
2018-07-12T00:57:15.514Z,5.00
2018-07-12T00:59:42.793Z,4.57
2018-07-12T01:02:10.087Z,4.93
2018-07-12T01:04:37.492Z,4.67
2018-07-12T01:07:05.023Z,4.80
2018-07-12T01:09:32.304Z,4.60
2018-07-12T01:11:59.621Z,4.60
2018-07-12T01:14:26.903Z,5.20
2018-07-12T01:16:54.214Z,5.07
2018-07-12T01:19:21.539Z,5.23
2018-07-12T01:21:48.794Z,4.20
2018-07-12T01:24:16.062Z,5.17
2018-07-12T01:26:43.357Z,5.07
2018-07-12T01:29:10.656Z,5.53
2018-07-12T01:31:37.927Z,5.60
2018-07-12T01:34:05.254Z,5.20
2018-07-12T01:36:32.545Z,4.70
2018-07-12T01:38:59.877Z,4.90
2018-07-12T01:41:27.162Z,4.83
2018-07-12T01:43:54.472Z,5.07
2018-07-12T01:46:21.805Z,4.50
2018-07-12T01:48:49.061Z,5.00
2018-07-12T01:51:16.380Z,5.20
2018-07-12T01:53:43.678Z,4.93
2018-07-12T01:56:10.953Z,5.20
2018-07-12T01:58:38.238Z,5.63
2018-07-12T02:01:05.522Z,5.90
2018-07-12T02:03:32.821Z,5.30
2018-07-12T02:06:00.122Z,5.30
2018-07-12T02:08:27.428Z,5.73
2018-07-12T02:10:54.721Z,6.20
2018-07-12T02:13:22.054Z,5.57
2018-07-12T02:15:49.356Z,5.30
2018-07-12T02:18:16.635Z,5.60
2018-07-12T02:20:43.934Z,5.97
2018-07-12T02:23:11.239Z,6.03
2018-07-12T02:25:38.517Z,6.20
2018-07-12T02:28:05.813Z,5.70
2018-07-12T02:30:33.104Z,5.47
2018-07-12T02:33:00.411Z,5.73
2018-07-12T02:35:27.734Z,5.73
2018-07-12T02:37:55.040Z,6.23
2018-07-12T02:40:22.391Z,6.10
2018-07-12T02:42:49.678Z,5.90
2018-07-12T02:45:16.955Z,6.50
2018-07-12T02:47:44.259Z,6.43
2018-07-12T02:50:11.619Z,7.63
2018-07-12T02:52:38.894Z,6.00
2018-07-12T02:55:06.165Z,7.40
2018-07-12T02:57:33.464Z,6.50
2018-07-12T03:00:00.761Z,6.87
2018-07-12T03:02:28.037Z,6.33
2018-07-12T03:04:55.341Z,6.40
2018-07-12T03:07:22.638Z,6.40
2018-07-12T03:09:49.905Z,6.53
2018-07-12T03:12:17.225Z,6.90
2018-07-12T03:14:44.495Z,6.70
2018-07-12T03:17:11.772Z,7.00
2018-07-12T03:19:39.073Z,6.60
2018-07-12T03:22:06.353Z,6.80
2018-07-12T03:24:33.638Z,7.30
2018-07-12T03:27:00.939Z,6.50
2018-07-12T03:29:28.314Z,7.03
2018-07-12T03:31:55.595Z,6.97
2018-07-12T03:34:22.897Z,7.60
2018-07-12T03:36:50.194Z,7.60
2018-07-12T03:39:17.488Z,7.13
2018-07-12T03:41:44.793Z,8.97
2018-07-12T03:44:12.142Z,7.73
2018-07-12T03:46:39.474Z,7.80
2018-07-12T03:49:06.765Z,7.23
2018-07-12T03:51:34.066Z,7.40
2018-07-12T03:54:01.343Z,7.37
2018-07-12T03:56:28.634Z,7.47
2018-07-12T03:58:55.925Z,7.43
2018-07-12T04:01:23.225Z,7.37
2018-07-12T04:03:50.544Z,7.10
2018-07-12T04:06:17.843Z,7.37
2018-07-12T04:08:45.147Z,7.47
2018-07-12T04:11:12.539Z,6.90
2018-07-12T04:13:39.893Z,7.27
2018-07-12T04:16:07.214Z,6.30
2018-07-12T04:18:34.623Z,7.10
2018-07-12T04:21:01.918Z,7.20
2018-07-12T04:23:29.202Z,6.23
2018-07-12T04:25:56.590Z,6.90
2018-07-12T04:28:23.886Z,6.97
2018-07-12T04:30:51.193Z,7.30
2018-07-12T04:33:18.502Z,7.00
2018-07-12T04:35:45.835Z,6.60
2018-07-12T04:38:13.140Z,6.30
2018-07-12T04:40:40.431Z,6.93
2018-07-12T04:43:07.712Z,7.33
2018-07-12T04:45:34.989Z,6.53
2018-07-12T04:48:02.325Z,7.13
2018-07-12T04:50:29.608Z,7.10
2018-07-12T04:52:56.914Z,6.97
2018-07-12T04:55:24.195Z,6.80
2018-07-12T04:57:51.472Z,6.80
2018-07-12T05:00:18.755Z,6.60
2018-07-12T05:02:46.073Z,7.60
2018-07-12T05:05:13.380Z,7.33
2018-07-12T05:07:40.707Z,6.50
2018-07-12T05:10:08.030Z,6.50
2018-07-12T05:12:35.301Z,6.70
2018-07-12T05:15:02.578Z,7.13
2018-07-12T05:17:29.876Z,7.60
2018-07-12T05:19:57.151Z,7.03
2018-07-12T05:22:24.448Z,6.60
2018-07-12T05:24:51.749Z,7.20
2018-07-12T05:27:19.016Z,6.97
2018-07-12T05:29:46.346Z,6.37
2018-07-12T05:32:14.069Z,6.30
2018-07-12T05:34:41.422Z,6.83
2018-07-12T05:37:09.997Z,6.33
2018-07-12T05:39:38.634Z,7.03
2018-07-12T05:42:07.315Z,7.07
2018-07-12T05:44:35.892Z,7.40
2018-07-12T05:47:04.549Z,7.20
2018-07-12T05:49:34.058Z,7.10
2018-07-12T05:52:02.706Z,6.50
2018-07-12T05:54:31.432Z,8.40
2018-07-12T05:57:00.039Z,7.00
2018-07-12T05:59:28.641Z,7.60
2018-07-12T06:02:08.089Z,7.23
2018-07-12T06:04:36.674Z,6.37
2018-07-12T06:07:05.421Z,7.77
2018-07-12T06:09:34.139Z,6.47
2018-07-12T06:12:02.717Z,6.80
2018-07-12T06:14:31.339Z,7.27
2018-07-12T06:16:59.958Z,6.90
2018-07-12T06:19:28.630Z,7.10
2018-07-12T06:21:57.206Z,6.93
2018-07-12T06:24:25.795Z,6.10
2018-07-12T06:26:54.421Z,6.50
2018-07-12T06:29:23.001Z,5.90
2018-07-12T06:31:51.671Z,6.33
2018-07-12T06:34:20.261Z,6.10
2018-07-12T06:36:48.892Z,5.67
2018-07-12T06:39:17.517Z,5.27
2018-07-12T06:41:46.160Z,4.87
2018-07-12T06:44:14.757Z,5.50
2018-07-12T06:46:43.370Z,5.80
2018-07-12T06:49:11.973Z,5.70
2018-07-12T06:51:40.566Z,5.20
2018-07-12T06:54:09.287Z,5.40
2018-07-12T06:56:37.923Z,5.40
2018-07-12T06:59:06.649Z,5.07
2018-07-12T07:01:35.270Z,5.53
2018-07-12T07:04:03.937Z,5.50
2018-07-12T07:06:32.685Z,5.20
2018-07-12T07:09:01.446Z,5.30
2018-07-12T07:11:30.229Z,5.57
2018-07-12T07:13:58.981Z,6.73
2018-07-12T07:16:27.794Z,5.17
2018-07-12T07:19:03.083Z,5.00
2018-07-12T07:21:31.819Z,4.73
2018-07-12T07:24:00.547Z,4.93
2018-07-12T07:26:29.240Z,6.10
2018-07-12T07:28:58.475Z,5.60
2018-07-12T07:31:27.106Z,5.43
2018-07-12T07:33:55.753Z,5.53
2018-07-12T07:36:24.389Z,5.17
2018-07-12T07:38:53.097Z,5.63
2018-07-12T07:41:21.729Z,5.90
2018-07-12T07:43:50.322Z,6.00
2018-07-12T07:46:19.028Z,5.63
2018-07-12T07:48:47.634Z,5.10
2018-07-12T07:51:16.256Z,5.33
2018-07-12T07:53:44.875Z,5.30
2018-07-12T07:56:13.569Z,5.40
2018-07-12T07:58:42.201Z,6.40
2018-07-12T08:01:10.983Z,5.67
2018-07-12T08:03:39.601Z,5.93
2018-07-12T08:06:08.216Z,5.40
2018-07-12T08:08:36.832Z,5.37
2018-07-12T08:11:05.456Z,5.33
2018-07-12T08:13:34.059Z,4.73
2018-07-12T08:16:02.666Z,4.93
2018-07-12T08:18:31.329Z,5.80
2018-07-12T08:20:59.946Z,5.03
2018-07-12T08:23:28.598Z,5.57
2018-07-12T08:25:57.239Z,4.87
2018-07-12T08:28:27.266Z,5.47
2018-07-12T08:30:56.094Z,4.90
2018-07-12T08:33:25.140Z,6.00
2018-07-12T08:35:53.875Z,5.20
2018-07-12T08:38:22.460Z,5.63
2018-07-12T08:40:52.771Z,5.27
2018-07-12T08:43:21.387Z,5.47
2018-07-12T08:45:49.966Z,5.07
2018-07-12T08:48:18.587Z,4.83
2018-07-12T08:50:47.186Z,5.10
2018-07-12T08:53:15.789Z,5.40
2018-07-12T08:55:44.439Z,5.20
2018-07-12T08:58:13.110Z,5.00
2018-07-12T09:00:41.846Z,6.40
2018-07-12T09:03:10.419Z,5.57
2018-07-12T09:05:39.075Z,5.77
2018-07-12T09:08:07.645Z,5.20
2018-07-12T09:10:36.217Z,6.20
2018-07-12T09:13:04.819Z,7.00
2018-07-12T09:15:33.657Z,6.23
2018-07-12T09:18:02.336Z,5.90
2018-07-12T09:20:30.940Z,5.50
2018-07-12T09:22:59.562Z,5.80
2018-07-12T09:25:28.242Z,4.87
2018-07-12T09:27:56.907Z,5.00
2018-07-12T09:30:25.521Z,5.43
2018-07-12T09:32:54.305Z,5.37
2018-07-12T09:35:22.921Z,5.33
2018-07-12T09:37:51.563Z,5.37
2018-07-12T09:40:20.286Z,5.20
2018-07-12T09:42:48.963Z,5.40
2018-07-12T09:45:17.607Z,5.10
2018-07-12T09:47:46.273Z,4.83
2018-07-12T09:50:14.930Z,4.90
2018-07-12T09:52:43.597Z,5.23
2018-07-12T09:55:12.286Z,5.90
2018-07-12T09:57:51.949Z,4.33
2018-07-12T10:00:24.788Z,4.80
2018-07-12T10:02:58.554Z,4.53
2018-07-12T10:05:32.458Z,5.50
2018-07-12T10:08:06.329Z,4.83
2018-07-12T10:10:39.168Z,5.13
2018-07-12T10:15:13.894Z,4.80
2018-07-12T10:17:48.681Z,4.80
2018-07-12T10:20:17.382Z,5.20
2018-07-12T10:22:46.089Z,4.20
2018-07-12T10:25:14.753Z,5.00
2018-07-12T10:27:43.488Z,4.80
2018-07-12T10:30:12.157Z,4.90
2018-07-12T10:32:40.886Z,5.03
2018-07-12T10:35:09.526Z,4.77
2018-07-12T10:37:38.243Z,4.40
2018-07-12T10:40:07.078Z,4.30
2018-07-12T10:42:35.765Z,3.70
2018-07-12T10:45:04.482Z,4.20
2018-07-12T10:47:33.146Z,3.80
2018-07-12T10:50:01.829Z,4.33
2018-07-12T10:52:30.481Z,4.20
2018-07-12T10:54:59.889Z,3.80
2018-07-12T10:57:29.305Z,4.43
2018-07-12T10:59:57.990Z,3.70
2018-07-12T11:02:26.763Z,4.00
2018-07-12T11:04:55.450Z,3.90
2018-07-12T11:07:24.065Z,4.53
2018-07-12T11:09:52.796Z,4.00
2018-07-12T11:12:21.507Z,4.13
2018-07-12T11:14:50.162Z,4.50
2018-07-12T11:17:18.938Z,4.70
2018-07-12T11:19:47.574Z,4.00
2018-07-12T11:22:16.264Z,4.27
2018-07-12T11:24:44.943Z,4.50
2018-07-12T11:27:13.586Z,4.10
2018-07-12T11:29:52.073Z,4.30
2018-07-12T11:32:21.023Z,3.73
2018-07-12T11:34:49.888Z,4.07
2018-07-12T11:37:21.575Z,3.90
2018-07-12T11:39:50.183Z,4.27
2018-07-12T11:42:18.854Z,3.80
2018-07-12T11:44:47.955Z,3.87
2018-07-12T11:47:16.553Z,4.47
2018-07-12T11:49:45.195Z,3.60
2018-07-12T11:52:13.875Z,3.57
2018-07-12T11:54:42.505Z,4.70
2018-07-12T11:57:11.153Z,3.73
2018-07-12T11:59:39.760Z,3.60
2018-07-12T12:02:08.393Z,3.63
2018-07-12T12:04:36.978Z,4.37
2018-07-12T12:07:05.590Z,3.80
2018-07-12T12:09:34.200Z,4.30
2018-07-12T12:12:02.794Z,4.33
2018-07-12T12:14:31.401Z,3.83
2018-07-12T12:17:00.129Z,3.80
2018-07-12T12:19:28.814Z,3.97
2018-07-12T12:21:57.371Z,3.90
2018-07-12T12:24:25.947Z,3.80
2018-07-12T12:26:54.561Z,4.20
2018-07-12T12:29:23.860Z,3.90
2018-07-12T12:31:52.653Z,3.97
2018-07-12T12:34:21.311Z,3.77
2018-07-12T12:36:49.930Z,3.70
2018-07-12T12:39:18.602Z,3.73
2018-07-12T12:41:47.335Z,4.03
2018-07-12T12:44:16.131Z,4.10
2018-07-12T12:46:44.784Z,3.80
2018-07-12T12:49:13.443Z,4.00
2018-07-12T12:51:42.058Z,3.90
2018-07-12T12:54:10.710Z,3.90
2018-07-12T12:56:39.308Z,3.00
2018-07-12T12:59:08.019Z,3.33
2018-07-12T13:01:36.626Z,3.20
2018-07-12T13:04:05.465Z,3.13
2018-07-12T13:06:34.096Z,2.90
2018-07-12T13:09:02.832Z,3.43
2018-07-12T13:11:31.421Z,3.13
2018-07-12T13:14:00.059Z,2.77
2018-07-12T13:16:28.709Z,3.37
2018-07-12T13:18:57.346Z,3.60
2018-07-12T13:21:26.750Z,3.43
2018-07-12T13:23:55.359Z,3.40
2018-07-12T13:26:24.023Z,2.70
2018-07-12T13:28:52.889Z,2.70
2018-07-12T13:31:22.223Z,2.43
2018-07-12T13:33:50.815Z,2.70
2018-07-12T13:36:19.635Z,2.97
2018-07-12T13:38:48.419Z,3.83
2018-07-12T13:41:17.136Z,2.80
2018-07-12T13:43:45.782Z,2.80
2018-07-12T13:46:14.434Z,3.40
2018-07-12T13:48:43.063Z,3.07
2018-07-12T13:51:11.748Z,2.83
2018-07-12T13:53:40.361Z,3.23
2018-07-12T13:56:09.214Z,2.83
2018-07-12T13:58:37.843Z,3.40
2018-07-12T14:01:06.811Z,2.90
2018-07-12T14:03:35.406Z,2.80
2018-07-12T14:06:05.463Z,3.20
2018-07-12T14:08:36.246Z,3.00
2018-07-12T14:11:05.850Z,3.37
2018-07-12T14:13:36.144Z,3.50
2018-07-12T14:16:08.183Z,2.30
2018-07-12T14:18:37.490Z,3.17
2018-07-12T14:21:07.372Z,2.77
2018-07-12T14:23:36.561Z,2.87
2018-07-12T14:26:05.550Z,2.93
2018-07-12T14:28:35.825Z,2.93
2018-07-12T14:31:05.488Z,3.07
2018-07-12T14:33:35.376Z,3.07
2018-07-12T14:36:04.764Z,2.30
2018-07-12T14:38:34.832Z,2.30
2018-07-12T14:41:04.716Z,2.40
2018-07-12T14:43:35.222Z,2.40
2018-07-12T14:46:06.952Z,2.83
2018-07-12T14:48:35.827Z,2.93
2018-07-12T14:51:05.914Z,2.10
2018-07-12T14:53:35.605Z,2.40
2018-07-12T14:56:05.441Z,1.93
2018-07-12T14:58:34.932Z,2.63
2018-07-12T15:01:04.096Z,2.80
2018-07-12T15:03:33.826Z,2.63
2018-07-12T15:06:03.600Z,2.47
2018-07-12T15:08:33.294Z,3.20
2018-07-12T15:11:02.978Z,2.20
2018-07-12T15:13:31.647Z,2.90
2018-07-12T15:16:00.321Z,2.03
2018-07-12T15:18:28.929Z,2.10
2018-07-12T15:20:57.561Z,1.90
2018-07-12T15:23:26.198Z,2.23
2018-07-12T15:25:54.834Z,2.07
2018-07-12T15:28:23.417Z,2.20
2018-07-12T15:30:52.795Z,2.17
2018-07-12T15:33:21.404Z,1.80
2018-07-12T15:35:50.023Z,1.73
2018-07-12T15:38:18.665Z,2.17
2018-07-12T15:40:47.447Z,2.00
2018-07-12T15:43:16.214Z,1.90
2018-07-12T15:45:44.905Z,1.73
2018-07-12T15:48:13.789Z,1.70
2018-07-12T15:50:42.453Z,1.70
2018-07-12T15:53:11.476Z,2.00
2018-07-12T15:55:40.032Z,1.80
2018-07-12T15:58:08.730Z,2.17
2018-07-12T16:00:37.386Z,1.63
2018-07-12T16:03:06.277Z,2.00
2018-07-12T16:05:34.882Z,2.43
2018-07-12T16:08:03.637Z,2.13
2018-07-12T16:10:32.257Z,2.07
2018-07-12T16:13:00.948Z,1.90
2018-07-12T16:15:29.561Z,2.30
2018-07-12T16:17:58.237Z,1.57
2018-07-12T16:20:26.866Z,2.10
2018-07-12T16:22:55.559Z,1.80
2018-07-12T16:25:24.152Z,1.70
2018-07-12T16:27:52.869Z,2.20
2018-07-12T16:30:21.500Z,1.80
2018-07-12T16:32:50.169Z,1.73
2018-07-12T16:35:18.843Z,2.07
2018-07-12T16:37:47.587Z,2.00
2018-07-12T16:40:16.291Z,1.80
2018-07-12T16:42:45.304Z,2.43
2018-07-12T16:45:13.925Z,2.10
2018-07-12T16:47:42.670Z,1.70
2018-07-12T16:50:11.375Z,1.77
2018-07-12T16:52:40.446Z,1.63
2018-07-12T16:55:09.179Z,1.83
2018-07-12T16:57:37.763Z,1.40
2018-07-12T17:00:06.426Z,1.60
2018-07-12T17:02:35.147Z,1.33
2018-07-12T17:05:03.930Z,1.90
2018-07-12T17:07:32.650Z,1.20
2018-07-12T17:10:01.522Z,1.57
2018-07-12T17:12:30.354Z,1.40
2018-07-12T17:14:59.032Z,1.40
2018-07-12T17:17:27.674Z,1.60
2018-07-12T17:19:56.358Z,1.63
2018-07-12T17:22:25.095Z,1.50
2018-07-12T17:24:53.929Z,1.30
2018-07-12T17:27:22.603Z,1.23
2018-07-12T17:29:51.297Z,1.60
2018-07-12T17:32:20.055Z,1.70
2018-07-12T17:34:48.693Z,1.53
2018-07-12T17:37:17.414Z,1.60
2018-07-12T17:39:46.082Z,1.70
2018-07-12T17:42:14.764Z,1.40
2018-07-12T17:44:43.439Z,1.70
2018-07-12T17:47:12.147Z,1.30
2018-07-12T17:49:40.804Z,1.87
2018-07-12T17:52:09.470Z,1.70
2018-07-12T17:54:38.128Z,1.60
2018-07-12T17:57:06.766Z,1.93
2018-07-12T17:59:35.455Z,1.70
2018-07-12T18:02:04.332Z,1.93
2018-07-12T18:04:33.060Z,1.80
2018-07-12T18:07:01.787Z,2.00
2018-07-12T18:09:30.504Z,1.83
2018-07-12T18:11:59.160Z,1.87
2018-07-12T18:14:27.981Z,2.00
2018-07-12T18:16:56.611Z,2.20
2018-07-12T18:19:25.424Z,1.77
2018-07-12T18:21:54.618Z,1.80
2018-07-12T18:24:23.338Z,2.20
2018-07-12T18:26:52.584Z,2.20
2018-07-12T18:29:21.401Z,2.20
2018-07-12T18:31:50.082Z,2.13
2018-07-12T18:34:19.249Z,2.20
2018-07-12T18:36:48.660Z,2.30
2018-07-12T18:39:17.341Z,1.83
2018-07-12T18:41:45.991Z,2.40
2018-07-12T18:44:14.679Z,2.40
2018-07-12T18:46:43.432Z,2.40
2018-07-12T18:49:12.224Z,2.90
2018-07-12T18:51:46.215Z,2.73
2018-07-12T18:54:14.918Z,2.43
2018-07-12T18:56:43.613Z,2.40
2018-07-12T18:59:12.311Z,2.73
2018-07-12T19:01:41.135Z,3.37
2018-07-12T19:04:09.876Z,2.40
2018-07-12T19:06:38.577Z,2.60
2018-07-12T19:09:08.785Z,2.57
2018-07-12T19:11:37.535Z,2.77
2018-07-12T19:14:06.222Z,2.80
2018-07-12T19:16:34.885Z,2.80
2018-07-12T19:19:03.686Z,3.13
2018-07-12T19:21:32.339Z,2.97
2018-07-12T19:24:01.120Z,3.00
2018-07-12T19:26:29.867Z,2.97
2018-07-12T19:28:58.644Z,3.30
2018-07-12T19:31:27.290Z,3.30
2018-07-12T19:33:56.034Z,2.90
2018-07-12T19:36:24.825Z,3.10
2018-07-12T19:38:53.588Z,3.07
2018-07-12T19:41:22.295Z,2.93
2018-07-12T19:43:50.990Z,3.07
2018-07-12T19:46:19.698Z,3.03
2018-07-12T19:48:48.563Z,3.20
2018-07-12T19:51:18.153Z,3.03
2018-07-12T19:53:46.934Z,3.03
2018-07-12T19:56:15.652Z,3.20
2018-07-12T19:58:45.350Z,3.30
2018-07-12T20:01:14.079Z,3.87
2018-07-12T20:03:42.775Z,3.30
2018-07-12T20:06:11.610Z,3.40
2018-07-12T20:08:40.616Z,3.50
2018-07-12T20:11:09.415Z,3.50
2018-07-12T20:13:38.407Z,3.10
2018-07-12T20:16:07.188Z,3.60
2018-07-12T20:18:35.852Z,3.43
2018-07-12T20:21:04.552Z,4.07
2018-07-12T20:23:34.768Z,4.00
2018-07-12T20:26:03.612Z,3.77
2018-07-12T20:28:32.979Z,4.40
2018-07-12T20:31:01.848Z,3.93
2018-07-12T20:33:30.576Z,3.57
2018-07-12T20:35:59.284Z,4.77
2018-07-12T20:38:27.959Z,3.80
2018-07-12T20:40:56.871Z,6.17
2018-07-12T20:43:25.504Z,3.80
2018-07-12T20:45:54.248Z,3.73
2018-07-12T20:48:22.950Z,4.10
2018-07-12T20:50:52.477Z,4.47
2018-07-12T20:53:21.224Z,4.33
2018-07-12T20:55:49.846Z,3.70
2018-07-12T20:58:18.718Z,4.07
2018-07-12T21:00:47.405Z,3.80
2018-07-12T21:03:16.089Z,3.70
2018-07-12T21:05:46.082Z,3.77
2018-07-12T21:08:14.765Z,4.60
2018-07-12T21:10:43.408Z,4.10
2018-07-12T21:13:12.192Z,4.47
2018-07-12T21:15:41.066Z,4.03
2018-07-12T21:18:11.049Z,3.90
2018-07-12T21:20:40.886Z,4.60
2018-07-12T21:23:09.570Z,4.00
2018-07-12T21:25:38.185Z,4.50
2018-07-12T21:28:07.620Z,4.50
2018-07-12T21:30:36.352Z,5.00
2018-07-12T21:33:05.034Z,4.20
2018-07-12T21:35:33.849Z,4.50
2018-07-12T21:38:02.496Z,4.67
2018-07-12T21:40:32.068Z,4.40
2018-07-12T21:43:00.748Z,4.03
2018-07-12T21:45:29.389Z,4.37
2018-07-12T21:47:58.040Z,4.20
2018-07-12T21:50:26.863Z,4.77
2018-07-12T21:52:55.569Z,4.77
2018-07-12T21:55:24.393Z,5.80
2018-07-12T21:57:53.140Z,4.60
2018-07-12T22:00:22.334Z,4.30
2018-07-12T22:02:51.122Z,4.57
2018-07-12T22:05:19.939Z,4.33
2018-07-12T22:08:14.433Z,4.77
2018-07-12T22:10:44.209Z,4.60
2018-07-12T22:13:13.289Z,4.30
2018-07-12T22:15:42.023Z,4.47
2018-07-12T22:18:10.902Z,4.77
2018-07-12T22:20:39.635Z,4.20
2018-07-12T22:23:08.368Z,4.33
2018-07-12T22:25:37.133Z,4.23
2018-07-12T22:28:05.782Z,5.00
2018-07-12T22:30:34.539Z,4.43
2018-07-12T22:33:03.807Z,5.10
2018-07-12T22:35:32.488Z,4.70
2018-07-12T22:38:02.682Z,4.60
2018-07-12T22:40:31.732Z,4.60
2018-07-12T22:43:00.358Z,4.37
2018-07-12T22:45:28.975Z,4.60
2018-07-12T22:47:57.728Z,4.90
2018-07-12T22:50:27.029Z,4.50
2018-07-12T22:52:55.701Z,4.90
2018-07-12T22:55:24.312Z,4.70
2018-07-12T22:57:52.930Z,4.30
2018-07-12T23:00:21.542Z,4.40
2018-07-12T23:02:50.188Z,3.70
2018-07-12T23:05:18.868Z,4.87
2018-07-12T23:07:47.464Z,4.43
2018-07-12T23:10:16.103Z,4.43
2018-07-12T23:12:44.687Z,4.73
2018-07-12T23:15:13.297Z,4.17
2018-07-12T23:17:42.588Z,4.43
2018-07-12T23:20:11.195Z,4.57
2018-07-12T23:22:40.466Z,4.57
2018-07-12T23:25:09.079Z,4.57
2018-07-12T23:27:37.710Z,4.67
2018-07-12T23:30:06.375Z,4.60
2018-07-12T23:32:34.996Z,4.20
2018-07-12T23:35:03.616Z,4.70
2018-07-12T23:37:32.249Z,4.60
2018-07-12T23:40:00.866Z,5.00
2018-07-12T23:42:29.473Z,4.70
2018-07-12T23:44:58.110Z,4.87
2018-07-12T23:47:27.278Z,4.90
2018-07-12T23:49:55.827Z,4.20
2018-07-12T23:52:24.409Z,4.73
2018-07-12T23:54:53.035Z,5.20
2018-07-12T23:57:21.637Z,4.10
2018-07-12T23:59:50.207Z,4.20
